sensor_id;sensor_type;location;lat;lon;timestamp;temperature;humidity
64705;DHT22;51131;52.298;13.686;2023-05-10T00:00:40;18.80;51.20
64705;DHT22;51131;52.298;13.686;2023-05-10T00:03:07;18.80;51.40
64705;DHT22;51131;52.298;13.686;2023-05-10T00:05:34;18.80;51.40
64705;DHT22;51131;52.298;13.686;2023-05-10T00:08:01;18.80;51.40
64705;DHT22;51131;52.298;13.686;2023-05-10T00:10:27;18.80;51.50
64705;DHT22;51131;52.298;13.686;2023-05-10T00:12:54;19.10;51.60
64705;DHT22;51131;52.298;13.686;2023-05-10T00:15:21;18.90;51.60
64705;DHT22;51131;52.298;13.686;2023-05-10T00:17:47;18.80;51.50
64705;DHT22;51131;52.298;13.686;2023-05-10T00:20:14;19.30;51.90
64705;DHT22;51131;52.298;13.686;2023-05-10T00:22:41;18.80;51.70
64705;DHT22;51131;52.298;13.686;2023-05-10T00:25:08;18.80;51.70
64705;DHT22;51131;52.298;13.686;2023-05-10T00:27:35;18.70;51.60
64705;DHT22;51131;52.298;13.686;2023-05-10T00:30:01;18.70;51.60
64705;DHT22;51131;52.298;13.686;2023-05-10T00:32:28;18.70;51.60
64705;DHT22;51131;52.298;13.686;2023-05-10T00:34:55;18.70;51.50
64705;DHT22;51131;52.298;13.686;2023-05-10T00:37:21;18.80;51.50
64705;DHT22;51131;52.298;13.686;2023-05-10T00:39:48;18.80;51.60
64705;DHT22;51131;52.298;13.686;2023-05-10T00:42:15;18.80;51.40
64705;DHT22;51131;52.298;13.686;2023-05-10T00:44:41;18.80;51.30
64705;DHT22;51131;52.298;13.686;2023-05-10T00:47:08;18.80;51.30
64705;DHT22;51131;52.298;13.686;2023-05-10T00:49:35;18.80;51.30
64705;DHT22;51131;52.298;13.686;2023-05-10T00:52:02;18.70;51.20
64705;DHT22;51131;52.298;13.686;2023-05-10T00:54:29;18.80;51.10
64705;DHT22;51131;52.298;13.686;2023-05-10T00:56:56;18.90;51.30
64705;DHT22;51131;52.298;13.686;2023-05-10T00:59:23;18.80;51.40
64705;DHT22;51131;52.298;13.686;2023-05-10T01:01:50;18.70;51.20
64705;DHT22;51131;52.298;13.686;2023-05-10T01:04:18;18.70;51.40
64705;DHT22;51131;52.298;13.686;2023-05-10T01:06:48;18.70;51.40
64705;DHT22;51131;52.298;13.686;2023-05-10T01:09:15;18.80;51.60
64705;DHT22;51131;52.298;13.686;2023-05-10T01:11:42;19.40;52.10
64705;DHT22;51131;52.298;13.686;2023-05-10T01:14:08;18.80;51.60
64705;DHT22;51131;52.298;13.686;2023-05-10T01:16:37;19.40;51.60
64705;DHT22;51131;52.298;13.686;2023-05-10T01:19:06;18.90;51.00
64705;DHT22;51131;52.298;13.686;2023-05-10T01:21:55;19.00;50.90
64705;DHT22;51131;52.298;13.686;2023-05-10T01:29:34;19.00;50.70
64705;DHT22;51131;52.298;13.686;2023-05-10T01:32:20;19.10;50.90
64705;DHT22;51131;52.298;13.686;2023-05-10T01:35:08;19.00;50.90
64705;DHT22;51131;52.298;13.686;2023-05-10T01:37:58;19.00;50.90
64705;DHT22;51131;52.298;13.686;2023-05-10T01:40:26;19.00;51.10
64705;DHT22;51131;52.298;13.686;2023-05-10T01:42:59;19.00;51.30
64705;DHT22;51131;52.298;13.686;2023-05-10T01:45:29;18.90;50.90
64705;DHT22;51131;52.298;13.686;2023-05-10T01:48:03;19.60;51.70
64705;DHT22;51131;52.298;13.686;2023-05-10T01:50:32;18.90;51.30
64705;DHT22;51131;52.298;13.686;2023-05-10T01:52:59;18.90;51.40
64705;DHT22;51131;52.298;13.686;2023-05-10T01:55:30;18.90;51.50
64705;DHT22;51131;52.298;13.686;2023-05-10T01:58:02;18.90;51.50
64705;DHT22;51131;52.298;13.686;2023-05-10T02:00:29;18.80;51.30
64705;DHT22;51131;52.298;13.686;2023-05-10T02:02:57;19.00;51.70
64705;DHT22;51131;52.298;13.686;2023-05-10T02:05:25;18.80;51.80
64705;DHT22;51131;52.298;13.686;2023-05-10T02:07:53;18.80;51.70
64705;DHT22;51131;52.298;13.686;2023-05-10T02:10:20;19.00;51.80
64705;DHT22;51131;52.298;13.686;2023-05-10T02:12:47;18.80;51.80
64705;DHT22;51131;52.298;13.686;2023-05-10T02:15:17;18.10;51.20
64705;DHT22;51131;52.298;13.686;2023-05-10T02:17:44;18.80;51.50
64705;DHT22;51131;52.298;13.686;2023-05-10T02:20:12;18.80;51.60
64705;DHT22;51131;52.298;13.686;2023-05-10T02:22:40;18.80;51.60
64705;DHT22;51131;52.298;13.686;2023-05-10T02:25:08;18.90;51.70
64705;DHT22;51131;52.298;13.686;2023-05-10T02:27:35;18.80;51.50
64705;DHT22;51131;52.298;13.686;2023-05-10T02:30:03;18.70;51.50
64705;DHT22;51131;52.298;13.686;2023-05-10T02:32:31;18.80;51.60
64705;DHT22;51131;52.298;13.686;2023-05-10T02:34:59;19.30;52.10
64705;DHT22;51131;52.298;13.686;2023-05-10T02:37:26;18.80;51.70
64705;DHT22;51131;52.298;13.686;2023-05-10T02:39:54;18.70;51.50
64705;DHT22;51131;52.298;13.686;2023-05-10T02:42:25;19.00;51.90
64705;DHT22;51131;52.298;13.686;2023-05-10T02:44:53;18.80;51.60
64705;DHT22;51131;52.298;13.686;2023-05-10T02:47:20;18.80;51.80
64705;DHT22;51131;52.298;13.686;2023-05-10T02:49:47;18.70;51.70
64705;DHT22;51131;52.298;13.686;2023-05-10T02:52:16;18.80;51.80
64705;DHT22;51131;52.298;13.686;2023-05-10T02:54:44;18.70;51.70
64705;DHT22;51131;52.298;13.686;2023-05-10T02:57:15;18.70;51.80
64705;DHT22;51131;52.298;13.686;2023-05-10T02:59:42;18.70;51.70
64705;DHT22;51131;52.298;13.686;2023-05-10T03:02:09;18.70;51.70
64705;DHT22;51131;52.298;13.686;2023-05-10T03:04:36;18.70;52.00
64705;DHT22;51131;52.298;13.686;2023-05-10T03:07:03;18.70;51.70
64705;DHT22;51131;52.298;13.686;2023-05-10T03:09:30;18.70;51.80
64705;DHT22;51131;52.298;13.686;2023-05-10T03:14:51;18.70;51.70
64705;DHT22;51131;52.298;13.686;2023-05-10T03:17:28;18.70;51.60
64705;DHT22;51131;52.298;13.686;2023-05-10T03:19:56;18.70;51.40
64705;DHT22;51131;52.298;13.686;2023-05-10T03:22:47;18.70;51.40
64705;DHT22;51131;52.298;13.686;2023-05-10T03:25:11;18.70;51.30
64705;DHT22;51131;52.298;13.686;2023-05-10T03:27:39;18.70;51.50
64705;DHT22;51131;52.298;13.686;2023-05-10T03:30:07;18.80;51.60
64705;DHT22;51131;52.298;13.686;2023-05-10T03:32:34;18.70;51.50
64705;DHT22;51131;52.298;13.686;2023-05-10T03:35:06;18.70;51.60
64705;DHT22;51131;52.298;13.686;2023-05-10T03:37:32;18.70;51.50
64705;DHT22;51131;52.298;13.686;2023-05-10T03:39:59;18.70;51.40
64705;DHT22;51131;52.298;13.686;2023-05-10T03:42:25;18.60;51.30
64705;DHT22;51131;52.298;13.686;2023-05-10T03:44:52;18.60;51.30
64705;DHT22;51131;52.298;13.686;2023-05-10T03:47:19;18.70;51.50
64705;DHT22;51131;52.298;13.686;2023-05-10T03:49:46;18.80;51.60
64705;DHT22;51131;52.298;13.686;2023-05-10T03:52:12;18.60;51.50
64705;DHT22;51131;52.298;13.686;2023-05-10T03:54:39;18.60;51.40
64705;DHT22;51131;52.298;13.686;2023-05-10T03:57:06;18.60;51.40
64705;DHT22;51131;52.298;13.686;2023-05-10T03:59:32;18.60;51.40
64705;DHT22;51131;52.298;13.686;2023-05-10T04:01:59;18.60;51.40
64705;DHT22;51131;52.298;13.686;2023-05-10T04:04:36;18.70;52.00
64705;DHT22;51131;52.298;13.686;2023-05-10T04:07:02;18.70;51.20
64705;DHT22;51131;52.298;13.686;2023-05-10T04:09:29;18.70;51.40
64705;DHT22;51131;52.298;13.686;2023-05-10T04:11:56;18.60;51.10
64705;DHT22;51131;52.298;13.686;2023-05-10T04:14:22;18.70;51.20
64705;DHT22;51131;52.298;13.686;2023-05-10T04:16:49;18.70;51.20
64705;DHT22;51131;52.298;13.686;2023-05-10T04:19:16;18.60;51.10
64705;DHT22;51131;52.298;13.686;2023-05-10T04:21:42;18.70;51.30
64705;DHT22;51131;52.298;13.686;2023-05-10T04:24:09;18.60;51.30
64705;DHT22;51131;52.298;13.686;2023-05-10T04:26:35;18.60;51.40
64705;DHT22;51131;52.298;13.686;2023-05-10T04:29:02;18.80;51.40
64705;DHT22;51131;52.298;13.686;2023-05-10T04:31:28;18.60;51.40
64705;DHT22;51131;52.298;13.686;2023-05-10T04:33:55;18.60;51.30
64705;DHT22;51131;52.298;13.686;2023-05-10T04:36:22;18.60;51.30
64705;DHT22;51131;52.298;13.686;2023-05-10T04:38:48;18.60;51.30
64705;DHT22;51131;52.298;13.686;2023-05-10T04:41:15;18.60;51.40
64705;DHT22;51131;52.298;13.686;2023-05-10T04:43:42;18.60;51.40
64705;DHT22;51131;52.298;13.686;2023-05-10T04:46:08;18.50;51.30
64705;DHT22;51131;52.298;13.686;2023-05-10T04:48:35;18.50;51.20
64705;DHT22;51131;52.298;13.686;2023-05-10T04:51:02;18.70;51.30
64705;DHT22;51131;52.298;13.686;2023-05-10T04:53:30;18.50;51.20
64705;DHT22;51131;52.298;13.686;2023-05-10T04:55:57;18.70;51.40
64705;DHT22;51131;52.298;13.686;2023-05-10T04:58:23;18.70;51.20
64705;DHT22;51131;52.298;13.686;2023-05-10T05:00:50;18.80;51.20
64705;DHT22;51131;52.298;13.686;2023-05-10T05:03:17;18.80;51.00
64705;DHT22;51131;52.298;13.686;2023-05-10T05:05:43;18.90;51.00
64705;DHT22;51131;52.298;13.686;2023-05-10T05:08:11;19.00;50.80
64705;DHT22;51131;52.298;13.686;2023-05-10T05:10:37;18.90;50.90
64705;DHT22;51131;52.298;13.686;2023-05-10T05:13:04;19.00;50.90
64705;DHT22;51131;52.298;13.686;2023-05-10T05:15:31;18.90;50.90
64705;DHT22;51131;52.298;13.686;2023-05-10T05:17:57;18.90;50.90
64705;DHT22;51131;52.298;13.686;2023-05-10T05:20:24;18.80;50.80
64705;DHT22;51131;52.298;13.686;2023-05-10T05:22:50;18.90;50.90
64705;DHT22;51131;52.298;13.686;2023-05-10T05:25:17;18.80;51.20
64705;DHT22;51131;52.298;13.686;2023-05-10T05:27:44;18.70;50.80
64705;DHT22;51131;52.298;13.686;2023-05-10T05:30:10;18.80;51.10
64705;DHT22;51131;52.298;13.686;2023-05-10T05:32:37;18.70;51.00
64705;DHT22;51131;52.298;13.686;2023-05-10T05:35:04;18.70;51.00
64705;DHT22;51131;52.298;13.686;2023-05-10T05:37:31;18.70;51.20
64705;DHT22;51131;52.298;13.686;2023-05-10T05:39:57;18.80;51.20
64705;DHT22;51131;52.298;13.686;2023-05-10T05:42:24;18.60;51.00
64705;DHT22;51131;52.298;13.686;2023-05-10T05:44:50;18.60;50.90
64705;DHT22;51131;52.298;13.686;2023-05-10T05:47:17;18.60;51.00
64705;DHT22;51131;52.298;13.686;2023-05-10T05:49:44;18.60;51.00
64705;DHT22;51131;52.298;13.686;2023-05-10T05:52:12;18.60;51.10
64705;DHT22;51131;52.298;13.686;2023-05-10T05:54:38;18.60;51.10
64705;DHT22;51131;52.298;13.686;2023-05-10T05:57:05;18.60;51.00
64705;DHT22;51131;52.298;13.686;2023-05-10T05:59:32;18.60;51.00
64705;DHT22;51131;52.298;13.686;2023-05-10T06:01:58;18.60;51.20
64705;DHT22;51131;52.298;13.686;2023-05-10T06:04:25;18.60;51.20
64705;DHT22;51131;52.298;13.686;2023-05-10T06:06:52;18.60;51.70
64705;DHT22;51131;52.298;13.686;2023-05-10T06:09:19;18.60;51.40
64705;DHT22;51131;52.298;13.686;2023-05-10T06:11:45;18.70;51.60
64705;DHT22;51131;52.298;13.686;2023-05-10T06:14:13;18.70;51.40
64705;DHT22;51131;52.298;13.686;2023-05-10T06:16:39;18.70;51.60
64705;DHT22;51131;52.298;13.686;2023-05-10T06:19:07;19.00;52.30
64705;DHT22;51131;52.298;13.686;2023-05-10T06:21:33;18.70;51.80
64705;DHT22;51131;52.298;13.686;2023-05-10T06:24:00;18.70;51.90
64705;DHT22;51131;52.298;13.686;2023-05-10T06:26:26;18.90;52.30
64705;DHT22;51131;52.298;13.686;2023-05-10T06:28:53;18.80;52.20
64705;DHT22;51131;52.298;13.686;2023-05-10T06:31:20;18.70;52.20
64705;DHT22;51131;52.298;13.686;2023-05-10T06:33:47;18.70;52.40
64705;DHT22;51131;52.298;13.686;2023-05-10T06:36:13;18.70;52.30
64705;DHT22;51131;52.298;13.686;2023-05-10T06:38:40;18.70;52.30
64705;DHT22;51131;52.298;13.686;2023-05-10T06:41:07;18.70;52.40
64705;DHT22;51131;52.298;13.686;2023-05-10T06:43:33;18.70;52.50
64705;DHT22;51131;52.298;13.686;2023-05-10T06:46:01;18.70;52.40
64705;DHT22;51131;52.298;13.686;2023-05-10T06:48:27;18.80;52.60
64705;DHT22;51131;52.298;13.686;2023-05-10T06:50:54;18.70;52.20
64705;DHT22;51131;52.298;13.686;2023-05-10T06:53:21;18.70;52.60
64705;DHT22;51131;52.298;13.686;2023-05-10T06:55:48;18.70;52.60
64705;DHT22;51131;52.298;13.686;2023-05-10T06:58:15;18.70;52.40
64705;DHT22;51131;52.298;13.686;2023-05-10T07:00:42;18.70;51.80
64705;DHT22;51131;52.298;13.686;2023-05-10T07:03:10;19.00;52.30
64705;DHT22;51131;52.298;13.686;2023-05-10T07:05:37;18.80;51.40
64705;DHT22;51131;52.298;13.686;2023-05-10T07:08:03;18.80;51.70
64705;DHT22;51131;52.298;13.686;2023-05-10T07:10:30;18.90;51.90
64705;DHT22;51131;52.298;13.686;2023-05-10T07:12:57;19.00;51.90
64705;DHT22;51131;52.298;13.686;2023-05-10T07:15:24;19.00;51.60
64705;DHT22;51131;52.298;13.686;2023-05-10T07:17:50;19.00;51.60
64705;DHT22;51131;52.298;13.686;2023-05-10T07:20:18;19.10;51.50
64705;DHT22;51131;52.298;13.686;2023-05-10T07:22:45;19.10;51.30
64705;DHT22;51131;52.298;13.686;2023-05-10T07:25:11;19.20;51.30
64705;DHT22;51131;52.298;13.686;2023-05-10T07:27:38;19.20;51.20
64705;DHT22;51131;52.298;13.686;2023-05-10T07:30:05;19.20;51.00
64705;DHT22;51131;52.298;13.686;2023-05-10T07:32:31;19.20;50.90
64705;DHT22;51131;52.298;13.686;2023-05-10T07:34:58;19.20;50.50
64705;DHT22;51131;52.298;13.686;2023-05-10T07:37:25;19.20;50.20
64705;DHT22;51131;52.298;13.686;2023-05-10T07:39:51;19.20;50.40
64705;DHT22;51131;52.298;13.686;2023-05-10T07:42:18;19.20;50.20
64705;DHT22;51131;52.298;13.686;2023-05-10T07:44:45;19.20;50.00
64705;DHT22;51131;52.298;13.686;2023-05-10T07:47:11;19.20;50.40
64705;DHT22;51131;52.298;13.686;2023-05-10T07:49:38;19.40;50.50
64705;DHT22;51131;52.298;13.686;2023-05-10T07:52:04;19.30;50.20
64705;DHT22;51131;52.298;13.686;2023-05-10T07:54:31;19.30;50.00
64705;DHT22;51131;52.298;13.686;2023-05-10T07:56:58;19.30;49.80
64705;DHT22;51131;52.298;13.686;2023-05-10T07:59:26;19.30;50.40
64705;DHT22;51131;52.298;13.686;2023-05-10T08:01:52;19.30;50.30
64705;DHT22;51131;52.298;13.686;2023-05-10T08:04:19;19.40;49.90
64705;DHT22;51131;52.298;13.686;2023-05-10T08:06:46;19.40;49.90
64705;DHT22;51131;52.298;13.686;2023-05-10T08:09:12;19.60;49.70
64705;DHT22;51131;52.298;13.686;2023-05-10T08:11:39;19.50;50.00
64705;DHT22;51131;52.298;13.686;2023-05-10T08:14:06;19.50;50.60
64705;DHT22;51131;52.298;13.686;2023-05-10T08:16:32;19.50;50.70
64705;DHT22;51131;52.298;13.686;2023-05-10T08:18:59;19.50;51.10
64705;DHT22;51131;52.298;13.686;2023-05-10T08:21:26;19.50;51.20
64705;DHT22;51131;52.298;13.686;2023-05-10T08:23:52;19.50;51.20
64705;DHT22;51131;52.298;13.686;2023-05-10T08:26:19;19.40;51.20
64705;DHT22;51131;52.298;13.686;2023-05-10T08:28:47;19.40;51.30
64705;DHT22;51131;52.298;13.686;2023-05-10T08:31:14;19.40;51.60
64705;DHT22;51131;52.298;13.686;2023-05-10T08:33:41;19.40;51.90
64705;DHT22;51131;52.298;13.686;2023-05-10T08:36:11;19.40;52.10
64705;DHT22;51131;52.298;13.686;2023-05-10T08:38:37;19.40;52.00
64705;DHT22;51131;52.298;13.686;2023-05-10T08:41:04;19.40;51.40
64705;DHT22;51131;52.298;13.686;2023-05-10T08:43:31;19.50;51.30
64705;DHT22;51131;52.298;13.686;2023-05-10T08:46:01;19.50;50.80
64705;DHT22;51131;52.298;13.686;2023-05-10T08:48:29;19.50;50.90
64705;DHT22;51131;52.298;13.686;2023-05-10T08:50:58;19.50;51.00
64705;DHT22;51131;52.298;13.686;2023-05-10T08:53:25;19.60;51.00
64705;DHT22;51131;52.298;13.686;2023-05-10T08:55:53;19.50;51.10
64705;DHT22;51131;52.298;13.686;2023-05-10T08:58:20;19.60;51.40
64705;DHT22;51131;52.298;13.686;2023-05-10T09:00:48;19.60;52.10
64705;DHT22;51131;52.298;13.686;2023-05-10T09:03:14;19.40;51.80
64705;DHT22;51131;52.298;13.686;2023-05-10T09:05:42;19.40;52.00
64705;DHT22;51131;52.298;13.686;2023-05-10T09:08:08;19.40;51.70
64705;DHT22;51131;52.298;13.686;2023-05-10T09:10:35;19.40;51.60
64705;DHT22;51131;52.298;13.686;2023-05-10T09:13:01;19.50;52.00
64705;DHT22;51131;52.298;13.686;2023-05-10T09:15:29;19.40;51.50
64705;DHT22;51131;52.298;13.686;2023-05-10T09:17:55;19.40;51.80
64705;DHT22;51131;52.298;13.686;2023-05-10T09:20:22;19.40;51.30
64705;DHT22;51131;52.298;13.686;2023-05-10T09:22:49;19.50;50.90
64705;DHT22;51131;52.298;13.686;2023-05-10T09:25:16;19.50;50.70
64705;DHT22;51131;52.298;13.686;2023-05-10T09:27:44;19.80;51.40
64705;DHT22;51131;52.298;13.686;2023-05-10T09:30:15;19.60;51.40
64705;DHT22;51131;52.298;13.686;2023-05-10T09:32:45;19.50;51.40
64705;DHT22;51131;52.298;13.686;2023-05-10T09:35:14;19.60;51.40
64705;DHT22;51131;52.298;13.686;2023-05-10T09:37:42;19.60;50.70
64705;DHT22;51131;52.298;13.686;2023-05-10T09:40:13;19.60;50.90
64705;DHT22;51131;52.298;13.686;2023-05-10T09:42:50;19.60;50.70
64705;DHT22;51131;52.298;13.686;2023-05-10T09:45:17;19.60;51.10
64705;DHT22;51131;52.298;13.686;2023-05-10T09:47:45;19.60;50.80
64705;DHT22;51131;52.298;13.686;2023-05-10T09:50:11;19.60;50.70
64705;DHT22;51131;52.298;13.686;2023-05-10T09:52:53;19.60;51.10
64705;DHT22;51131;52.298;13.686;2023-05-10T09:55:23;19.50;51.70
64705;DHT22;51131;52.298;13.686;2023-05-10T09:58:00;19.50;50.60
64705;DHT22;51131;52.298;13.686;2023-05-10T10:00:27;19.40;50.90
64705;DHT22;51131;52.298;13.686;2023-05-10T10:02:55;19.40;51.00
64705;DHT22;51131;52.298;13.686;2023-05-10T10:05:29;19.50;50.60
64705;DHT22;51131;52.298;13.686;2023-05-10T10:07:56;19.60;50.10
64705;DHT22;51131;52.298;13.686;2023-05-10T10:10:26;19.60;50.60
64705;DHT22;51131;52.298;13.686;2023-05-10T10:12:53;19.70;50.60
64705;DHT22;51131;52.298;13.686;2023-05-10T10:15:21;19.70;50.10
64705;DHT22;51131;52.298;13.686;2023-05-10T10:17:49;19.70;50.10
64705;DHT22;51131;52.298;13.686;2023-05-10T10:20:16;19.80;50.00
64705;DHT22;51131;52.298;13.686;2023-05-10T10:22:43;19.80;50.50
64705;DHT22;51131;52.298;13.686;2023-05-10T10:25:10;19.80;50.40
64705;DHT22;51131;52.298;13.686;2023-05-10T10:35:53;19.80;50.30
64705;DHT22;51131;52.298;13.686;2023-05-10T10:38:20;19.80;50.50
64705;DHT22;51131;52.298;13.686;2023-05-10T10:40:47;19.80;50.40
64705;DHT22;51131;52.298;13.686;2023-05-10T10:43:21;19.80;50.30
64705;DHT22;51131;52.298;13.686;2023-05-10T10:46:09;19.70;50.10
64705;DHT22;51131;52.298;13.686;2023-05-10T10:48:34;19.80;49.80
64705;DHT22;51131;52.298;13.686;2023-05-10T10:51:02;19.70;49.80
64705;DHT22;51131;52.298;13.686;2023-05-10T10:53:28;19.70;50.00
64705;DHT22;51131;52.298;13.686;2023-05-10T10:56:04;19.70;50.40
64705;DHT22;51131;52.298;13.686;2023-05-10T10:58:33;19.70;49.70
64705;DHT22;51131;52.298;13.686;2023-05-10T11:01:10;19.70;50.00
64705;DHT22;51131;52.298;13.686;2023-05-10T11:03:37;19.70;50.30
64705;DHT22;51131;52.298;13.686;2023-05-10T11:06:04;19.70;50.40
64705;DHT22;51131;52.298;13.686;2023-05-10T11:08:31;19.70;50.40
64705;DHT22;51131;52.298;13.686;2023-05-10T11:13:43;19.70;49.80
64705;DHT22;51131;52.298;13.686;2023-05-10T11:21:19;19.70;49.90
64705;DHT22;51131;52.298;13.686;2023-05-10T11:26:12;19.60;49.70
64705;DHT22;51131;52.298;13.686;2023-05-10T11:28:46;19.70;49.60
64705;DHT22;51131;52.298;13.686;2023-05-10T11:31:13;19.70;50.40
64705;DHT22;51131;52.298;13.686;2023-05-10T11:33:47;19.60;49.50
64705;DHT22;51131;52.298;13.686;2023-05-10T11:36:14;19.60;50.10
64705;DHT22;51131;52.298;13.686;2023-05-10T11:38:41;19.60;50.00
64705;DHT22;51131;52.298;13.686;2023-05-10T11:41:09;19.80;49.50
64705;DHT22;51131;52.298;13.686;2023-05-10T11:43:36;19.60;49.60
64705;DHT22;51131;52.298;13.686;2023-05-10T11:46:08;19.60;49.60
64705;DHT22;51131;52.298;13.686;2023-05-10T11:48:36;19.60;49.80
64705;DHT22;51131;52.298;13.686;2023-05-10T11:51:03;19.60;49.60
64705;DHT22;51131;52.298;13.686;2023-05-10T11:53:36;19.60;50.00
64705;DHT22;51131;52.298;13.686;2023-05-10T11:56:08;19.60;49.70
64705;DHT22;51131;52.298;13.686;2023-05-10T11:58:35;19.60;49.40
64705;DHT22;51131;52.298;13.686;2023-05-10T12:01:02;19.60;49.20
64705;DHT22;51131;52.298;13.686;2023-05-10T12:17:20;19.50;50.10
64705;DHT22;51131;52.298;13.686;2023-05-10T12:19:47;19.50;49.90
64705;DHT22;51131;52.298;13.686;2023-05-10T12:22:14;19.50;50.30
64705;DHT22;51131;52.298;13.686;2023-05-10T12:24:40;19.50;50.30
64705;DHT22;51131;52.298;13.686;2023-05-10T12:27:07;19.50;50.30
64705;DHT22;51131;52.298;13.686;2023-05-10T12:29:34;19.50;49.80
64705;DHT22;51131;52.298;13.686;2023-05-10T12:32:01;19.50;50.30
64705;DHT22;51131;52.298;13.686;2023-05-10T12:34:33;19.70;50.10
64705;DHT22;51131;52.298;13.686;2023-05-10T12:37:00;19.40;50.10
64705;DHT22;51131;52.298;13.686;2023-05-10T12:39:43;19.40;50.90
64705;DHT22;51131;52.298;13.686;2023-05-10T12:42:11;19.40;50.30
64705;DHT22;51131;52.298;13.686;2023-05-10T12:44:38;19.40;50.50
64705;DHT22;51131;52.298;13.686;2023-05-10T12:47:04;19.40;50.50
64705;DHT22;51131;52.298;13.686;2023-05-10T12:49:32;19.40;50.30
64705;DHT22;51131;52.298;13.686;2023-05-10T12:51:58;19.40;50.30
64705;DHT22;51131;52.298;13.686;2023-05-10T12:54:25;19.40;50.60
64705;DHT22;51131;52.298;13.686;2023-05-10T12:56:52;19.40;50.40
64705;DHT22;51131;52.298;13.686;2023-05-10T12:59:18;19.40;50.50
64705;DHT22;51131;52.298;13.686;2023-05-10T13:01:45;19.40;50.70
64705;DHT22;51131;52.298;13.686;2023-05-10T13:04:12;19.40;50.80
64705;DHT22;51131;52.298;13.686;2023-05-10T13:06:38;19.40;50.70
64705;DHT22;51131;52.298;13.686;2023-05-10T13:09:05;19.40;50.80
64705;DHT22;51131;52.298;13.686;2023-05-10T13:11:32;19.40;50.90
64705;DHT22;51131;52.298;13.686;2023-05-10T13:13:58;19.40;51.00
64705;DHT22;51131;52.298;13.686;2023-05-10T13:16:25;19.40;50.10
64705;DHT22;51131;52.298;13.686;2023-05-10T13:18:52;19.40;51.50
64705;DHT22;51131;52.298;13.686;2023-05-10T13:21:18;19.40;51.50
64705;DHT22;51131;52.298;13.686;2023-05-10T13:23:45;19.40;51.40
64705;DHT22;51131;52.298;13.686;2023-05-10T13:26:12;19.40;51.10
64705;DHT22;51131;52.298;13.686;2023-05-10T13:28:39;19.40;50.90
64705;DHT22;51131;52.298;13.686;2023-05-10T13:31:07;19.40;51.40
64705;DHT22;51131;52.298;13.686;2023-05-10T13:33:33;19.30;51.60
64705;DHT22;51131;52.298;13.686;2023-05-10T13:36:00;19.30;51.50
64705;DHT22;51131;52.298;13.686;2023-05-10T13:38:27;19.30;50.70
64705;DHT22;51131;52.298;13.686;2023-05-10T13:40:53;19.30;51.10
64705;DHT22;51131;52.298;13.686;2023-05-10T13:43:20;19.30;51.20
64705;DHT22;51131;52.298;13.686;2023-05-10T13:45:46;19.30;51.00
64705;DHT22;51131;52.298;13.686;2023-05-10T13:48:13;19.30;51.20
64705;DHT22;51131;52.298;13.686;2023-05-10T13:50:40;19.30;51.00
64705;DHT22;51131;52.298;13.686;2023-05-10T13:53:06;19.30;51.20
64705;DHT22;51131;52.298;13.686;2023-05-10T13:55:33;19.40;52.30
64705;DHT22;51131;52.298;13.686;2023-05-10T13:58:00;19.70;51.80
64705;DHT22;51131;52.298;13.686;2023-05-10T14:00:26;19.20;51.00
64705;DHT22;51131;52.298;13.686;2023-05-10T14:02:53;19.30;51.20
64705;DHT22;51131;52.298;13.686;2023-05-10T14:05:20;19.30;50.60
64705;DHT22;51131;52.298;13.686;2023-05-10T14:07:51;19.30;50.70
64705;DHT22;51131;52.298;13.686;2023-05-10T14:10:18;19.20;51.20
64705;DHT22;51131;52.298;13.686;2023-05-10T14:12:44;19.20;50.40
64705;DHT22;51131;52.298;13.686;2023-05-10T14:15:11;19.40;50.40
64705;DHT22;51131;52.298;13.686;2023-05-10T14:17:38;19.20;50.10
64705;DHT22;51131;52.298;13.686;2023-05-10T14:20:05;19.20;50.60
64705;DHT22;51131;52.298;13.686;2023-05-10T14:22:31;19.20;50.50
64705;DHT22;51131;52.298;13.686;2023-05-10T14:24:58;19.20;50.90
64705;DHT22;51131;52.298;13.686;2023-05-10T14:27:25;19.20;51.40
64705;DHT22;51131;52.298;13.686;2023-05-10T14:29:52;19.20;51.10
64705;DHT22;51131;52.298;13.686;2023-05-10T14:32:19;19.20;50.90
64705;DHT22;51131;52.298;13.686;2023-05-10T14:34:46;19.20;51.20
64705;DHT22;51131;52.298;13.686;2023-05-10T14:37:13;19.20;51.00
64705;DHT22;51131;52.298;13.686;2023-05-10T14:39:39;19.30;51.80
64705;DHT22;51131;52.298;13.686;2023-05-10T14:42:06;19.10;51.90
64705;DHT22;51131;52.298;13.686;2023-05-10T14:44:33;19.30;52.10
64705;DHT22;51131;52.298;13.686;2023-05-10T14:46:59;19.20;51.90
64705;DHT22;51131;52.298;13.686;2023-05-10T14:49:26;19.20;52.20
64705;DHT22;51131;52.298;13.686;2023-05-10T14:51:53;19.20;51.00
64705;DHT22;51131;52.298;13.686;2023-05-10T14:54:19;19.20;51.40
64705;DHT22;51131;52.298;13.686;2023-05-10T14:56:46;19.20;50.40
64705;DHT22;51131;52.298;13.686;2023-05-10T14:59:16;19.30;50.20
64705;DHT22;51131;52.298;13.686;2023-05-10T15:01:43;19.20;50.70
64705;DHT22;51131;52.298;13.686;2023-05-10T15:04:10;19.30;49.10
64705;DHT22;51131;52.298;13.686;2023-05-10T15:06:37;19.20;49.50
64705;DHT22;51131;52.298;13.686;2023-05-10T15:09:03;19.20;49.60
64705;DHT22;51131;52.298;13.686;2023-05-10T15:11:30;19.30;49.30
64705;DHT22;51131;52.298;13.686;2023-05-10T15:13:56;19.40;49.50
64705;DHT22;51131;52.298;13.686;2023-05-10T15:16:23;19.30;49.60
64705;DHT22;51131;52.298;13.686;2023-05-10T15:18:50;19.40;49.40
64705;DHT22;51131;52.298;13.686;2023-05-10T15:21:17;19.40;48.80
64705;DHT22;51131;52.298;13.686;2023-05-10T15:23:43;19.40;49.10
64705;DHT22;51131;52.298;13.686;2023-05-10T15:26:10;19.30;49.20
64705;DHT22;51131;52.298;13.686;2023-05-10T15:28:37;19.40;48.90
64705;DHT22;51131;52.298;13.686;2023-05-10T15:31:03;19.40;50.20
64705;DHT22;51131;52.298;13.686;2023-05-10T15:33:30;19.40;51.50
64705;DHT22;51131;52.298;13.686;2023-05-10T15:35:56;19.60;52.90
64705;DHT22;51131;52.298;13.686;2023-05-10T15:38:25;19.40;52.80
64705;DHT22;51131;52.298;13.686;2023-05-10T15:40:55;19.40;51.10
64705;DHT22;51131;52.298;13.686;2023-05-10T15:43:22;19.40;50.10
64705;DHT22;51131;52.298;13.686;2023-05-10T15:45:49;19.40;49.60
64705;DHT22;51131;52.298;13.686;2023-05-10T15:48:15;19.40;50.00
64705;DHT22;51131;52.298;13.686;2023-05-10T15:50:42;19.40;50.80
64705;DHT22;51131;52.298;13.686;2023-05-10T15:53:09;19.40;50.90
64705;DHT22;51131;52.298;13.686;2023-05-10T15:55:36;19.40;50.60
64705;DHT22;51131;52.298;13.686;2023-05-10T15:58:02;19.40;50.70